sensor_id;sensor_type;location;lat;lon;timestamp;P1;durP1;ratioP1;P2;durP2;ratioP2
68475;SDS011;55464;48.266;14.188;2023-08-06T00:01:11;3.63;;;2.80;;
68475;SDS011;55464;48.266;14.188;2023-08-06T00:03:37;9.02;;;3.45;;
68475;SDS011;55464;48.266;14.188;2023-08-06T00:06:04;3.20;;;2.90;;
68475;SDS011;55464;48.266;14.188;2023-08-06T00:08:30;3.40;;;3.10;;
68475;SDS011;55464;48.266;14.188;2023-08-06T00:10:55;3.38;;;3.08;;
68475;SDS011;55464;48.266;14.188;2023-08-06T00:13:21;4.03;;;3.35;;
68475;SDS011;55464;48.266;14.188;2023-08-06T00:15:46;3.95;;;2.95;;
68475;SDS011;55464;48.266;14.188;2023-08-06T00:18:12;5.38;;;3.05;;
68475;SDS011;55464;48.266;14.188;2023-08-06T00:20:40;3.58;;;3.28;;
68475;SDS011;55464;48.266;14.188;2023-08-06T00:23:06;3.35;;;3.05;;
68475;SDS011;55464;48.266;14.188;2023-08-06T00:25:32;3.50;;;3.20;;
68475;SDS011;55464;48.266;14.188;2023-08-06T00:27:58;4.13;;;3.72;;
68475;SDS011;55464;48.266;14.188;2023-08-06T00:30:23;3.38;;;3.08;;
68475;SDS011;55464;48.266;14.188;2023-08-06T00:32:49;5.43;;;3.00;;
68475;SDS011;55464;48.266;14.188;2023-08-06T00:35:14;3.10;;;2.90;;
68475;SDS011;55464;48.266;14.188;2023-08-06T00:37:40;3.15;;;2.95;;
68475;SDS011;55464;48.266;14.188;2023-08-06T00:40:06;2.58;;;2.38;;
68475;SDS011;55464;48.266;14.188;2023-08-06T00:42:32;4.82;;;3.40;;
68475;SDS011;55464;48.266;14.188;2023-08-06T00:44:59;3.65;;;2.78;;
68475;SDS011;55464;48.266;14.188;2023-08-06T00:47:25;5.03;;;3.03;;
68475;SDS011;55464;48.266;14.188;2023-08-06T00:49:50;2.63;;;2.42;;
68475;SDS011;55464;48.266;14.188;2023-08-06T00:52:16;3.22;;;2.80;;
68475;SDS011;55464;48.266;14.188;2023-08-06T00:54:42;5.53;;;3.00;;
68475;SDS011;55464;48.266;14.188;2023-08-06T00:57:07;3.15;;;2.85;;
68475;SDS011;55464;48.266;14.188;2023-08-06T00:59:34;3.40;;;3.10;;
68475;SDS011;55464;48.266;14.188;2023-08-06T01:02:01;2.90;;;2.70;;
68475;SDS011;55464;48.266;14.188;2023-08-06T01:04:27;3.47;;;2.55;;
68475;SDS011;55464;48.266;14.188;2023-08-06T01:07:04;3.35;;;3.05;;
68475;SDS011;55464;48.266;14.188;2023-08-06T01:09:44;3.92;;;2.50;;
68475;SDS011;55464;48.266;14.188;2023-08-06T01:12:22;2.85;;;2.65;;
68475;SDS011;55464;48.266;14.188;2023-08-06T01:17:29;2.42;;;2.22;;
68475;SDS011;55464;48.266;14.188;2023-08-06T01:19:55;4.88;;;2.60;;
68475;SDS011;55464;48.266;14.188;2023-08-06T01:22:20;3.15;;;2.40;;
68475;SDS011;55464;48.266;14.188;2023-08-06T01:24:46;2.67;;;2.42;;
68475;SDS011;55464;48.266;14.188;2023-08-06T01:27:16;2.22;;;2.03;;
68475;SDS011;55464;48.266;14.188;2023-08-06T01:29:52;2.97;;;1.83;;
68475;SDS011;55464;48.266;14.188;2023-08-06T01:32:42;2.45;;;2.25;;
68475;SDS011;55464;48.266;14.188;2023-08-06T01:35:11;2.60;;;2.40;;
68475;SDS011;55464;48.266;14.188;2023-08-06T01:37:38;4.75;;;2.30;;
68475;SDS011;55464;48.266;14.188;2023-08-06T01:40:11;2.60;;;2.40;;
68475;SDS011;55464;48.266;14.188;2023-08-06T01:42:37;3.00;;;2.80;;
68475;SDS011;55464;48.266;14.188;2023-08-06T01:45:04;2.75;;;2.55;;
68475;SDS011;55464;48.266;14.188;2023-08-06T01:47:30;2.95;;;2.75;;
68475;SDS011;55464;48.266;14.188;2023-08-06T01:49:55;3.42;;;3.13;;
68475;SDS011;55464;48.266;14.188;2023-08-06T01:52:21;3.70;;;3.40;;
68475;SDS011;55464;48.266;14.188;2023-08-06T01:54:46;3.13;;;2.92;;
68475;SDS011;55464;48.266;14.188;2023-08-06T01:57:11;3.33;;;3.03;;
68475;SDS011;55464;48.266;14.188;2023-08-06T01:59:37;3.42;;;3.13;;
68475;SDS011;55464;48.266;14.188;2023-08-06T02:02:03;3.95;;;3.65;;
68475;SDS011;55464;48.266;14.188;2023-08-06T02:04:29;3.65;;;3.35;;
68475;SDS011;55464;48.266;14.188;2023-08-06T02:06:54;3.90;;;3.60;;
68475;SDS011;55464;48.266;14.188;2023-08-06T02:09:20;3.67;;;3.38;;
68475;SDS011;55464;48.266;14.188;2023-08-06T02:11:45;4.82;;;3.47;;
68475;SDS011;55464;48.266;14.188;2023-08-06T02:14:10;3.70;;;3.40;;
68475;SDS011;55464;48.266;14.188;2023-08-06T02:16:36;3.40;;;3.10;;
68475;SDS011;55464;48.266;14.188;2023-08-06T02:19:02;3.97;;;2.63;;
68475;SDS011;55464;48.266;14.188;2023-08-06T02:21:27;3.25;;;2.88;;
68475;SDS011;55464;48.266;14.188;2023-08-06T02:23:53;3.13;;;2.90;;
68475;SDS011;55464;48.266;14.188;2023-08-06T02:26:18;2.75;;;2.55;;
68475;SDS011;55464;48.266;14.188;2023-08-06T02:28:43;3.35;;;3.05;;
68475;SDS011;55464;48.266;14.188;2023-08-06T02:31:09;2.78;;;2.55;;
68475;SDS011;55464;48.266;14.188;2023-08-06T02:33:34;2.40;;;2.20;;
68475;SDS011;55464;48.266;14.188;2023-08-06T02:36:00;3.78;;;2.75;;
68475;SDS011;55464;48.266;14.188;2023-08-06T02:38:26;2.60;;;2.40;;
68475;SDS011;55464;48.266;14.188;2023-08-06T02:40:52;3.00;;;2.40;;
68475;SDS011;55464;48.266;14.188;2023-08-06T02:43:17;3.42;;;2.85;;
68475;SDS011;55464;48.266;14.188;2023-08-06T02:45:42;2.90;;;2.70;;
68475;SDS011;55464;48.266;14.188;2023-08-06T02:48:08;4.00;;;3.30;;
68475;SDS011;55464;48.266;14.188;2023-08-06T02:50:40;4.40;;;3.00;;
68475;SDS011;55464;48.266;14.188;2023-08-06T02:53:06;3.53;;;2.80;;
68475;SDS011;55464;48.266;14.188;2023-08-06T02:55:32;3.35;;;3.05;;
68475;SDS011;55464;48.266;14.188;2023-08-06T02:57:59;4.38;;;3.22;;
68475;SDS011;55464;48.266;14.188;2023-08-06T03:00:25;4.57;;;3.17;;
68475;SDS011;55464;48.266;14.188;2023-08-06T03:02:50;3.05;;;2.83;;
68475;SDS011;55464;48.266;14.188;2023-08-06T03:05:16;5.32;;;3.40;;
68475;SDS011;55464;48.266;14.188;2023-08-06T03:07:41;3.88;;;3.58;;
68475;SDS011;55464;48.266;14.188;2023-08-06T03:10:07;3.70;;;3.28;;
68475;SDS011;55464;48.266;14.188;2023-08-06T03:12:32;3.78;;;3.30;;
68475;SDS011;55464;48.266;14.188;2023-08-06T03:14:58;5.22;;;3.88;;
68475;SDS011;55464;48.266;14.188;2023-08-06T03:17:23;4.07;;;3.63;;
68475;SDS011;55464;48.266;14.188;2023-08-06T03:19:48;4.13;;;3.35;;
68475;SDS011;55464;48.266;14.188;2023-08-06T03:22:14;4.63;;;3.50;;
68475;SDS011;55464;48.266;14.188;2023-08-06T03:24:39;3.58;;;3.22;;
68475;SDS011;55464;48.266;14.188;2023-08-06T03:27:05;3.75;;;3.45;;
68475;SDS011;55464;48.266;14.188;2023-08-06T03:29:30;3.83;;;3.50;;
68475;SDS011;55464;48.266;14.188;2023-08-06T03:31:55;6.63;;;3.53;;
68475;SDS011;55464;48.266;14.188;2023-08-06T03:34:21;4.13;;;3.80;;
68475;SDS011;55464;48.266;14.188;2023-08-06T03:36:46;3.92;;;3.58;;
68475;SDS011;55464;48.266;14.188;2023-08-06T03:39:12;4.03;;;3.70;;
68475;SDS011;55464;48.266;14.188;2023-08-06T03:41:38;5.20;;;3.65;;
68475;SDS011;55464;48.266;14.188;2023-08-06T03:44:04;5.20;;;3.78;;
68475;SDS011;55464;48.266;14.188;2023-08-06T03:46:30;4.60;;;4.00;;
68475;SDS011;55464;48.266;14.188;2023-08-06T03:48:59;5.03;;;4.63;;
68475;SDS011;55464;48.266;14.188;2023-08-06T03:51:25;6.25;;;4.25;;
68475;SDS011;55464;48.266;14.188;2023-08-06T03:53:50;5.97;;;5.10;;
68475;SDS011;55464;48.266;14.188;2023-08-06T03:56:16;5.28;;;4.70;;
68475;SDS011;55464;48.266;14.188;2023-08-06T03:58:41;4.82;;;4.07;;
68475;SDS011;55464;48.266;14.188;2023-08-06T04:01:06;4.13;;;3.72;;
68475;SDS011;55464;48.266;14.188;2023-08-06T04:03:32;3.30;;;3.08;;
68475;SDS011;55464;48.266;14.188;2023-08-06T04:05:57;3.05;;;2.85;;
68475;SDS011;55464;48.266;14.188;2023-08-06T04:08:23;2.90;;;2.60;;
68475;SDS011;55464;48.266;14.188;2023-08-06T04:10:51;2.95;;;2.50;;
68475;SDS011;55464;48.266;14.188;2023-08-06T04:13:17;2.43;;;2.23;;
68475;SDS011;55464;48.266;14.188;2023-08-06T04:15:43;1.67;;;1.58;;
68475;SDS011;55464;48.266;14.188;2023-08-06T04:18:09;1.65;;;1.55;;
68475;SDS011;55464;48.266;14.188;2023-08-06T04:20:34;2.55;;;1.35;;
68475;SDS011;55464;48.266;14.188;2023-08-06T04:23:04;1.40;;;1.30;;
68475;SDS011;55464;48.266;14.188;2023-08-06T04:25:31;1.50;;;1.40;;
68475;SDS011;55464;48.266;14.188;2023-08-06T04:27:56;2.00;;;1.70;;
68475;SDS011;55464;48.266;14.188;2023-08-06T04:30:21;1.77;;;1.67;;
68475;SDS011;55464;48.266;14.188;2023-08-06T04:32:49;1.50;;;1.40;;
68475;SDS011;55464;48.266;14.188;2023-08-06T04:35:15;2.00;;;1.63;;
68475;SDS011;55464;48.266;14.188;2023-08-06T04:37:40;2.13;;;1.70;;
68475;SDS011;55464;48.266;14.188;2023-08-06T04:40:06;1.98;;;1.45;;
68475;SDS011;55464;48.266;14.188;2023-08-06T04:42:32;1.48;;;1.38;;
68475;SDS011;55464;48.266;14.188;2023-08-06T04:44:57;2.53;;;1.70;;
68475;SDS011;55464;48.266;14.188;2023-08-06T04:47:23;1.67;;;1.50;;
68475;SDS011;55464;48.266;14.188;2023-08-06T04:49:48;1.50;;;1.40;;
68475;SDS011;55464;48.266;14.188;2023-08-06T04:52:13;1.70;;;1.60;;
68475;SDS011;55464;48.266;14.188;2023-08-06T04:54:39;1.50;;;1.40;;
68475;SDS011;55464;48.266;14.188;2023-08-06T04:57:04;2.22;;;1.65;;
68475;SDS011;55464;48.266;14.188;2023-08-06T04:59:30;1.70;;;1.60;;
68475;SDS011;55464;48.266;14.188;2023-08-06T05:01:55;1.90;;;1.77;;
68475;SDS011;55464;48.266;14.188;2023-08-06T05:04:20;3.42;;;1.90;;
68475;SDS011;55464;48.266;14.188;2023-08-06T05:06:46;2.28;;;2.08;;
68475;SDS011;55464;48.266;14.188;2023-08-06T05:09:11;2.67;;;1.90;;
68475;SDS011;55464;48.266;14.188;2023-08-06T05:11:36;2.20;;;2.00;;
68475;SDS011;55464;48.266;14.188;2023-08-06T05:14:02;3.25;;;2.47;;
68475;SDS011;55464;48.266;14.188;2023-08-06T05:16:27;2.55;;;1.73;;
68475;SDS011;55464;48.266;14.188;2023-08-06T05:18:53;2.22;;;2.03;;
68475;SDS011;55464;48.266;14.188;2023-08-06T05:21:18;3.53;;;1.70;;
68475;SDS011;55464;48.266;14.188;2023-08-06T05:23:44;2.30;;;2.10;;
68475;SDS011;55464;48.266;14.188;2023-08-06T05:26:09;2.13;;;1.92;;
68475;SDS011;55464;48.266;14.188;2023-08-06T05:28:34;2.13;;;2.03;;
68475;SDS011;55464;48.266;14.188;2023-08-06T05:31:03;2.55;;;2.35;;
68475;SDS011;55464;48.266;14.188;2023-08-06T05:33:29;2.10;;;1.77;;
68475;SDS011;55464;48.266;14.188;2023-08-06T05:35:55;2.28;;;2.05;;
68475;SDS011;55464;48.266;14.188;2023-08-06T05:38:20;2.30;;;2.10;;
68475;SDS011;55464;48.266;14.188;2023-08-06T05:40:45;2.28;;;2.13;;
68475;SDS011;55464;48.266;14.188;2023-08-06T05:43:11;3.50;;;1.90;;
68475;SDS011;55464;48.266;14.188;2023-08-06T05:45:36;2.70;;;2.10;;
68475;SDS011;55464;48.266;14.188;2023-08-06T05:48:02;2.10;;;1.90;;
68475;SDS011;55464;48.266;14.188;2023-08-06T05:50:27;2.63;;;2.33;;
68475;SDS011;55464;48.266;14.188;2023-08-06T05:52:52;3.08;;;2.72;;
68475;SDS011;55464;48.266;14.188;2023-08-06T05:55:19;3.25;;;2.42;;
68475;SDS011;55464;48.266;14.188;2023-08-06T05:57:45;2.40;;;2.20;;
68475;SDS011;55464;48.266;14.188;2023-08-06T06:00:10;2.05;;;1.90;;
68475;SDS011;55464;48.266;14.188;2023-08-06T06:02:36;2.65;;;2.45;;
68475;SDS011;55464;48.266;14.188;2023-08-06T06:05:02;2.83;;;2.60;;
68475;SDS011;55464;48.266;14.188;2023-08-06T06:07:27;2.47;;;2.17;;
68475;SDS011;55464;48.266;14.188;2023-08-06T06:09:52;2.40;;;2.15;;
68475;SDS011;55464;48.266;14.188;2023-08-06T06:12:18;3.00;;;2.40;;
68475;SDS011;55464;48.266;14.188;2023-08-06T06:14:43;2.58;;;2.35;;
68475;SDS011;55464;48.266;14.188;2023-08-06T06:17:08;2.28;;;2.08;;
68475;SDS011;55464;48.266;14.188;2023-08-06T06:19:34;2.67;;;2.15;;
68475;SDS011;55464;48.266;14.188;2023-08-06T06:21:59;2.63;;;2.42;;
68475;SDS011;55464;48.266;14.188;2023-08-06T06:24:25;3.35;;;2.42;;
68475;SDS011;55464;48.266;14.188;2023-08-06T06:26:50;3.40;;;2.80;;
68475;SDS011;55464;48.266;14.188;2023-08-06T06:29:15;2.47;;;2.28;;
68475;SDS011;55464;48.266;14.188;2023-08-06T06:31:41;3.33;;;2.28;;
68475;SDS011;55464;48.266;14.188;2023-08-06T06:34:06;4.97;;;2.58;;
68475;SDS011;55464;48.266;14.188;2023-08-06T06:36:31;2.80;;;2.45;;
68475;SDS011;55464;48.266;14.188;2023-08-06T06:38:57;2.50;;;2.30;;
68475;SDS011;55464;48.266;14.188;2023-08-06T06:41:22;3.65;;;2.28;;
68475;SDS011;55464;48.266;14.188;2023-08-06T06:43:48;1.95;;;1.77;;
68475;SDS011;55464;48.266;14.188;2023-08-06T06:46:14;3.35;;;2.30;;
68475;SDS011;55464;48.266;14.188;2023-08-06T06:48:39;2.20;;;2.05;;
68475;SDS011;55464;48.266;14.188;2023-08-06T06:51:05;2.42;;;2.20;;
68475;SDS011;55464;48.266;14.188;2023-08-06T06:53:30;2.65;;;2.45;;
68475;SDS011;55464;48.266;14.188;2023-08-06T06:55:56;3.28;;;2.25;;
68475;SDS011;55464;48.266;14.188;2023-08-06T06:58:26;2.70;;;2.38;;
68475;SDS011;55464;48.266;14.188;2023-08-06T07:00:52;2.67;;;2.42;;
68475;SDS011;55464;48.266;14.188;2023-08-06T07:03:17;4.93;;;2.10;;
68475;SDS011;55464;48.266;14.188;2023-08-06T07:05:44;4.57;;;2.83;;
68475;SDS011;55464;48.266;14.188;2023-08-06T07:08:10;2.90;;;2.60;;
68475;SDS011;55464;48.266;14.188;2023-08-06T07:10:35;6.40;;;3.10;;
68475;SDS011;55464;48.266;14.188;2023-08-06T07:13:00;5.70;;;2.95;;
68475;SDS011;55464;48.266;14.188;2023-08-06T07:15:26;6.03;;;2.78;;
68475;SDS011;55464;48.266;14.188;2023-08-06T07:17:51;3.45;;;2.50;;
68475;SDS011;55464;48.266;14.188;2023-08-06T07:20:17;3.00;;;2.33;;
68475;SDS011;55464;48.266;14.188;2023-08-06T07:22:43;2.80;;;2.60;;
68475;SDS011;55464;48.266;14.188;2023-08-06T07:25:09;3.95;;;2.55;;
68475;SDS011;55464;48.266;14.188;2023-08-06T07:27:34;2.75;;;2.40;;
68475;SDS011;55464;48.266;14.188;2023-08-06T07:30:00;3.30;;;2.40;;
68475;SDS011;55464;48.266;14.188;2023-08-06T07:32:26;2.95;;;2.63;;
68475;SDS011;55464;48.266;14.188;2023-08-06T07:34:52;3.15;;;2.50;;
68475;SDS011;55464;48.266;14.188;2023-08-06T07:37:24;2.78;;;2.47;;
68475;SDS011;55464;48.266;14.188;2023-08-06T07:39:50;2.75;;;2.47;;
68475;SDS011;55464;48.266;14.188;2023-08-06T07:42:15;4.47;;;2.50;;
68475;SDS011;55464;48.266;14.188;2023-08-06T07:44:40;2.67;;;2.47;;
68475;SDS011;55464;48.266;14.188;2023-08-06T07:47:06;3.63;;;2.58;;
68475;SDS011;55464;48.266;14.188;2023-08-06T07:49:31;3.97;;;2.53;;
68475;SDS011;55464;48.266;14.188;2023-08-06T07:51:56;3.45;;;3.15;;
68475;SDS011;55464;48.266;14.188;2023-08-06T07:54:22;4.20;;;2.60;;
68475;SDS011;55464;48.266;14.188;2023-08-06T07:56:49;2.90;;;2.65;;
68475;SDS011;55464;48.266;14.188;2023-08-06T07:59:14;3.72;;;2.40;;
68475;SDS011;55464;48.266;14.188;2023-08-06T08:01:40;3.13;;;2.30;;
68475;SDS011;55464;48.266;14.188;2023-08-06T08:04:05;3.47;;;3.10;;
68475;SDS011;55464;48.266;14.188;2023-08-06T08:06:31;3.28;;;2.22;;
68475;SDS011;55464;48.266;14.188;2023-08-06T08:08:56;2.42;;;2.22;;
68475;SDS011;55464;48.266;14.188;2023-08-06T08:11:21;2.22;;;1.73;;
68475;SDS011;55464;48.266;14.188;2023-08-06T08:13:47;2.95;;;2.03;;
68475;SDS011;55464;48.266;14.188;2023-08-06T08:16:12;2.83;;;1.52;;
68475;SDS011;55464;48.266;14.188;2023-08-06T08:18:38;2.67;;;1.80;;
68475;SDS011;55464;48.266;14.188;2023-08-06T08:21:03;4.25;;;2.40;;
68475;SDS011;55464;48.266;14.188;2023-08-06T08:23:28;1.48;;;1.38;;
68475;SDS011;55464;48.266;14.188;2023-08-06T08:25:56;2.83;;;1.75;;
68475;SDS011;55464;48.266;14.188;2023-08-06T08:28:21;2.15;;;1.70;;
68475;SDS011;55464;48.266;14.188;2023-08-06T08:30:47;2.35;;;1.77;;
68475;SDS011;55464;48.266;14.188;2023-08-06T08:33:12;1.45;;;1.35;;
68475;SDS011;55464;48.266;14.188;2023-08-06T08:35:37;2.38;;;1.65;;
68475;SDS011;55464;48.266;14.188;2023-08-06T08:38:03;1.80;;;1.70;;
68475;SDS011;55464;48.266;14.188;2023-08-06T08:40:32;2.20;;;1.52;;
68475;SDS011;55464;48.266;14.188;2023-08-06T08:43:00;2.05;;;1.80;;
68475;SDS011;55464;48.266;14.188;2023-08-06T08:45:28;2.38;;;1.65;;
68475;SDS011;55464;48.266;14.188;2023-08-06T08:47:54;4.95;;;1.90;;
68475;SDS011;55464;48.266;14.188;2023-08-06T08:50:20;4.32;;;1.90;;
68475;SDS011;55464;48.266;14.188;2023-08-06T08:52:46;1.83;;;1.73;;
68475;SDS011;55464;48.266;14.188;2023-08-06T08:55:14;2.10;;;1.83;;
68475;SDS011;55464;48.266;14.188;2023-08-06T08:57:40;3.85;;;2.00;;
68475;SDS011;55464;48.266;14.188;2023-08-06T09:00:06;3.45;;;1.80;;
68475;SDS011;55464;48.266;14.188;2023-08-06T09:02:32;4.32;;;1.80;;
68475;SDS011;55464;48.266;14.188;2023-08-06T09:04:59;2.40;;;2.20;;
68475;SDS011;55464;48.266;14.188;2023-08-06T09:07:27;2.72;;;1.77;;
68475;SDS011;55464;48.266;14.188;2023-08-06T09:09:56;2.70;;;1.75;;
68475;SDS011;55464;48.266;14.188;2023-08-06T09:12:24;2.45;;;2.20;;
68475;SDS011;55464;48.266;14.188;2023-08-06T09:14:50;2.80;;;1.90;;
68475;SDS011;55464;48.266;14.188;2023-08-06T09:17:16;2.88;;;2.00;;
68475;SDS011;55464;48.266;14.188;2023-08-06T09:19:44;3.03;;;1.90;;
68475;SDS011;55464;48.266;14.188;2023-08-06T09:22:12;3.10;;;2.13;;
68475;SDS011;55464;48.266;14.188;2023-08-06T09:24:39;2.55;;;2.08;;
68475;SDS011;55464;48.266;14.188;2023-08-06T09:27:14;2.40;;;2.20;;
68475;SDS011;55464;48.266;14.188;2023-08-06T09:29:48;2.83;;;2.10;;
68475;SDS011;55464;48.266;14.188;2023-08-06T09:32:14;4.72;;;2.28;;
68475;SDS011;55464;48.266;14.188;2023-08-06T09:34:41;4.95;;;2.42;;
68475;SDS011;55464;48.266;14.188;2023-08-06T09:37:10;4.82;;;2.38;;
68475;SDS011;55464;48.266;14.188;2023-08-06T09:39:37;2.83;;;2.20;;
68475;SDS011;55464;48.266;14.188;2023-08-06T09:42:04;3.90;;;2.15;;
68475;SDS011;55464;48.266;14.188;2023-08-06T09:44:31;2.78;;;2.30;;
68475;SDS011;55464;48.266;14.188;2023-08-06T09:46:58;2.72;;;2.30;;
68475;SDS011;55464;48.266;14.188;2023-08-06T09:49:28;2.38;;;2.03;;
68475;SDS011;55464;48.266;14.188;2023-08-06T09:52:10;2.88;;;1.65;;
68475;SDS011;55464;48.266;14.188;2023-08-06T09:54:37;4.38;;;1.77;;
68475;SDS011;55464;48.266;14.188;2023-08-06T09:57:03;2.50;;;1.67;;
68475;SDS011;55464;48.266;14.188;2023-08-06T09:59:28;1.58;;;1.45;;
68475;SDS011;55464;48.266;14.188;2023-08-06T10:01:54;1.70;;;1.60;;
68475;SDS011;55464;48.266;14.188;2023-08-06T10:04:20;2.30;;;1.58;;
68475;SDS011;55464;48.266;14.188;2023-08-06T10:06:47;2.95;;;1.70;;
68475;SDS011;55464;48.266;14.188;2023-08-06T10:09:15;1.83;;;1.58;;
68475;SDS011;55464;48.266;14.188;2023-08-06T10:11:40;2.90;;;1.58;;
68475;SDS011;55464;48.266;14.188;2023-08-06T10:14:11;1.85;;;1.33;;
68475;SDS011;55464;48.266;14.188;2023-08-06T10:16:40;1.70;;;1.60;;
68475;SDS011;55464;48.266;14.188;2023-08-06T10:19:07;4.13;;;1.90;;
68475;SDS011;55464;48.266;14.188;2023-08-06T10:21:35;4.25;;;1.48;;
68475;SDS011;55464;48.266;14.188;2023-08-06T10:24:00;2.38;;;1.52;;
68475;SDS011;55464;48.266;14.188;2023-08-06T10:26:27;3.33;;;1.73;;
68475;SDS011;55464;48.266;14.188;2023-08-06T10:28:53;4.47;;;1.58;;
68475;SDS011;55464;48.266;14.188;2023-08-06T10:31:19;4.55;;;1.55;;
68475;SDS011;55464;48.266;14.188;2023-08-06T10:33:46;1.40;;;1.30;;
68475;SDS011;55464;48.266;14.188;2023-08-06T10:36:13;1.92;;;1.10;;
68475;SDS011;55464;48.266;14.188;2023-08-06T10:38:46;2.45;;;1.92;;
68475;SDS011;55464;48.266;14.188;2023-08-06T10:41:22;1.40;;;1.10;;
68475;SDS011;55464;48.266;14.188;2023-08-06T10:43:49;0.88;;;0.88;;
68475;SDS011;55464;48.266;14.188;2023-08-06T10:46:26;0.98;;;0.80;;
68475;SDS011;55464;48.266;14.188;2023-08-06T10:48:52;1.83;;;1.20;;
68475;SDS011;55464;48.266;14.188;2023-08-06T10:51:18;1.48;;;1.05;;
68475;SDS011;55464;48.266;14.188;2023-08-06T10:53:44;2.72;;;0.95;;
68475;SDS011;55464;48.266;14.188;2023-08-06T10:56:11;2.50;;;1.20;;
68475;SDS011;55464;48.266;14.188;2023-08-06T10:58:41;3.30;;;1.13;;
68475;SDS011;55464;48.266;14.188;2023-08-06T11:01:10;1.48;;;0.90;;
68475;SDS011;55464;48.266;14.188;2023-08-06T11:03:36;2.40;;;1.02;;
68475;SDS011;55464;48.266;14.188;2023-08-06T11:06:02;1.38;;;1.15;;
68475;SDS011;55464;48.266;14.188;2023-08-06T11:08:29;1.08;;;0.98;;
68475;SDS011;55464;48.266;14.188;2023-08-06T11:11:07;2.70;;;1.20;;
68475;SDS011;55464;48.266;14.188;2023-08-06T11:13:43;3.53;;;1.10;;
68475;SDS011;55464;48.266;14.188;2023-08-06T11:16:11;0.95;;;0.90;;
68475;SDS011;55464;48.266;14.188;2023-08-06T11:18:39;1.48;;;1.08;;
68475;SDS011;55464;48.266;14.188;2023-08-06T11:21:05;1.80;;;1.05;;
68475;SDS011;55464;48.266;14.188;2023-08-06T11:23:31;0.85;;;0.70;;
68475;SDS011;55464;48.266;14.188;2023-08-06T11:25:57;4.18;;;0.82;;
68475;SDS011;55464;48.266;14.188;2023-08-06T11:28:23;0.73;;;0.45;;
68475;SDS011;55464;48.266;14.188;2023-08-06T11:30:52;1.30;;;0.50;;
68475;SDS011;55464;48.266;14.188;2023-08-06T11:33:24;4.30;;;0.70;;
68475;SDS011;55464;48.266;14.188;2023-08-06T11:35:50;0.43;;;0.30;;
68475;SDS011;55464;48.266;14.188;2023-08-06T11:38:17;2.78;;;0.50;;
68475;SDS011;55464;48.266;14.188;2023-08-06T11:40:46;0.50;;;0.50;;
68475;SDS011;55464;48.266;14.188;2023-08-06T11:43:12;0.77;;;0.40;;
68475;SDS011;55464;48.266;14.188;2023-08-06T11:45:38;0.73;;;0.50;;
68475;SDS011;55464;48.266;14.188;2023-08-06T11:48:05;1.05;;;0.40;;
68475;SDS011;55464;48.266;14.188;2023-08-06T11:50:30;0.50;;;0.43;;
68475;SDS011;55464;48.266;14.188;2023-08-06T11:52:57;3.97;;;0.35;;
68475;SDS011;55464;48.266;14.188;2023-08-06T11:55:25;1.17;;;0.60;;
68475;SDS011;55464;48.266;14.188;2023-08-06T11:57:50;0.52;;;0.50;;
68475;SDS011;55464;48.266;14.188;2023-08-06T12:00:16;1.00;;;0.50;;
68475;SDS011;55464;48.266;14.188;2023-08-06T12:02:44;0.60;;;0.55;;
68475;SDS011;55464;48.266;14.188;2023-08-06T12:05:11;0.63;;;0.40;;
68475;SDS011;55464;48.266;14.188;2023-08-06T12:07:44;0.40;;;0.40;;
68475;SDS011;55464;48.266;14.188;2023-08-06T12:12:37;0.70;;;0.50;;
68475;SDS011;55464;48.266;14.188;2023-08-06T12:15:03;0.40;;;0.40;;
68475;SDS011;55464;48.266;14.188;2023-08-06T12:17:31;1.35;;;0.50;;
68475;SDS011;55464;48.266;14.188;2023-08-06T12:19:56;0.40;;;0.40;;
68475;SDS011;55464;48.266;14.188;2023-08-06T12:22:22;2.33;;;0.60;;
68475;SDS011;55464;48.266;14.188;2023-08-06T12:24:47;2.40;;;0.70;;
68475;SDS011;55464;48.266;14.188;2023-08-06T12:27:13;5.18;;;0.98;;
68475;SDS011;55464;48.266;14.188;2023-08-06T12:29:43;7.97;;;0.80;;
68475;SDS011;55464;48.266;14.188;2023-08-06T12:32:13;2.40;;;0.70;;
68475;SDS011;55464;48.266;14.188;2023-08-06T12:34:39;3.20;;;0.45;;
68475;SDS011;55464;48.266;14.188;2023-08-06T12:37:05;3.10;;;0.63;;
68475;SDS011;55464;48.266;14.188;2023-08-06T12:39:32;2.60;;;0.52;;
68475;SDS011;55464;48.266;14.188;2023-08-06T12:42:01;3.45;;;1.10;;
68475;SDS011;55464;48.266;14.188;2023-08-06T12:44:27;1.73;;;0.30;;
68475;SDS011;55464;48.266;14.188;2023-08-06T12:46:53;2.03;;;0.60;;
68475;SDS011;55464;48.266;14.188;2023-08-06T12:49:19;0.85;;;0.50;;
68475;SDS011;55464;48.266;14.188;2023-08-06T12:51:50;3.28;;;0.60;;
68475;SDS011;55464;48.266;14.188;2023-08-06T12:54:16;0.47;;;0.47;;
68475;SDS011;55464;48.266;14.188;2023-08-06T12:56:43;0.40;;;0.40;;
68475;SDS011;55464;48.266;14.188;2023-08-06T12:59:08;1.15;;;0.50;;
68475;SDS011;55464;48.266;14.188;2023-08-06T13:01:33;2.25;;;0.45;;
68475;SDS011;55464;48.266;14.188;2023-08-06T13:03:59;0.45;;;0.45;;
68475;SDS011;55464;48.266;14.188;2023-08-06T13:06:25;0.98;;;0.40;;
68475;SDS011;55464;48.266;14.188;2023-08-06T13:08:50;0.65;;;0.38;;
68475;SDS011;55464;48.266;14.188;2023-08-06T13:11:16;0.55;;;0.50;;
68475;SDS011;55464;48.266;14.188;2023-08-06T13:13:41;0.40;;;0.30;;
68475;SDS011;55464;48.266;14.188;2023-08-06T13:16:06;0.20;;;0.20;;
68475;SDS011;55464;48.266;14.188;2023-08-06T13:18:32;0.30;;;0.30;;
68475;SDS011;55464;48.266;14.188;2023-08-06T13:20:57;1.02;;;0.30;;
68475;SDS011;55464;48.266;14.188;2023-08-06T13:23:23;2.55;;;0.30;;
68475;SDS011;55464;48.266;14.188;2023-08-06T13:25:48;0.30;;;0.30;;
68475;SDS011;55464;48.266;14.188;2023-08-06T13:28:13;0.30;;;0.30;;
68475;SDS011;55464;48.266;14.188;2023-08-06T13:30:39;1.17;;;0.30;;
68475;SDS011;55464;48.266;14.188;2023-08-06T13:33:09;2.30;;;0.30;;
68475;SDS011;55464;48.266;14.188;2023-08-06T13:35:35;1.67;;;0.40;;
68475;SDS011;55464;48.266;14.188;2023-08-06T13:38:00;1.50;;;0.40;;
68475;SDS011;55464;48.266;14.188;2023-08-06T13:40:29;0.77;;;0.50;;
68475;SDS011;55464;48.266;14.188;2023-08-06T13:42:55;0.75;;;0.50;;
68475;SDS011;55464;48.266;14.188;2023-08-06T13:45:21;0.90;;;0.40;;
68475;SDS011;55464;48.266;14.188;2023-08-06T13:47:46;0.98;;;0.30;;
68475;SDS011;55464;48.266;14.188;2023-08-06T13:50:12;2.35;;;0.20;;
68475;SDS011;55464;48.266;14.188;2023-08-06T13:52:38;1.80;;;0.20;;
68475;SDS011;55464;48.266;14.188;2023-08-06T13:55:04;1.50;;;0.28;;
68475;SDS011;55464;48.266;14.188;2023-08-06T13:57:29;0.40;;;0.40;;
68475;SDS011;55464;48.266;14.188;2023-08-06T13:59:55;3.00;;;1.17;;
68475;SDS011;55464;48.266;14.188;2023-08-06T14:02:22;0.90;;;0.38;;
68475;SDS011;55464;48.266;14.188;2023-08-06T14:04:48;0.28;;;0.20;;
68475;SDS011;55464;48.266;14.188;2023-08-06T14:07:13;1.02;;;0.40;;
68475;SDS011;55464;48.266;14.188;2023-08-06T14:09:38;0.43;;;0.20;;
68475;SDS011;55464;48.266;14.188;2023-08-06T14:12:05;7.63;;;0.70;;
68475;SDS011;55464;48.266;14.188;2023-08-06T14:14:31;0.93;;;0.20;;
68475;SDS011;55464;48.266;14.188;2023-08-06T14:16:56;0.60;;;0.30;;
68475;SDS011;55464;48.266;14.188;2023-08-06T14:19:22;0.55;;;0.20;;
68475;SDS011;55464;48.266;14.188;2023-08-06T14:21:47;0.55;;;0.40;;
68475;SDS011;55464;48.266;14.188;2023-08-06T14:24:13;0.63;;;0.20;;
68475;SDS011;55464;48.266;14.188;2023-08-06T14:26:38;0.20;;;0.20;;
68475;SDS011;55464;48.266;14.188;2023-08-06T14:29:04;0.43;;;0.35;;
68475;SDS011;55464;48.266;14.188;2023-08-06T14:31:29;1.65;;;0.30;;
68475;SDS011;55464;48.266;14.188;2023-08-06T14:33:55;0.20;;;0.20;;